Time;durP1;ratioP1;P1;durP2;ratioP2;P2;SDS_P1;SDS_P2;PMS_P1;PMS_P2;Temp;Humidity;BMP_temperature;BMP_pressure;BME280_temperature;BME280_humidity;BME280_pressure;Samples;Min_cycle;Max_cycle;Signal;HPM_P1;HPM_P2
2022/07/16 00:03:50;;;;;;;2.83;0.90;;;;;;;;;;10002160;28;20067;-66
2022/07/16 00:08:46;;;;;;;3.55;1.00;;;;;;;;;;10034389;28;20095;-66
2022/07/16 00:13:42;;;;;;;2.72;0.90;;;;;;;;;;10016008;28;20135;-66
2022/07/16 00:23:54;;;;;;;4.88;1.33;;;;;;;;;;10002930;28;20423;-66
2022/07/16 00:28:50;;;;;;;5.47;1.60;;;;;;;;;;10015839;28;20048;-66
2022/07/16 00:33:46;;;;;;;5.85;1.42;;;;;;;;;;10001616;28;20715;-66
2022/07/16 00:38:43;;;;;;;4.38;1.52;;;;;;;;;;10015409;28;20055;-65
2022/07/16 00:43:49;;;;;;;5.43;2.40;;;;;;;;;;10004966;28;20071;-66
2022/07/16 00:48:46;;;;;;;4.72;1.75;;;;;;;;;;10001138;28;20048;-66
2022/07/16 00:53:43;;;;;;;2.78;1.65;;;;;;;;;;10007268;28;20468;-66
2022/07/16 00:58:41;;;;;;;5.75;2.05;;;;;;;;;;10040097;28;20747;-66
2022/07/16 01:03:38;;;;;;;4.38;2.00;;;;;;;;;;10025099;28;20495;-66
2022/07/16 01:08:44;;;;;;;4.57;1.73;;;;;;;;;;10053025;28;20054;-66
2022/07/16 01:13:43;;;;;;;4.40;2.00;;;;;;;;;;10005882;28;20052;-66
2022/07/16 01:18:41;;;;;;;4.45;2.10;;;;;;;;;;10027869;28;20056;-66
2022/07/16 01:23:39;;;;;;;7.05;2.10;;;;;;;;;;10005684;28;20613;-66
2022/07/16 01:28:36;;;;;;;5.93;2.25;;;;;;;;;;10026489;28;20060;-66
2022/07/16 01:33:33;;;;;;;10.70;2.65;;;;;;;;;;10004427;28;20405;-66
2022/07/16 01:38:30;;;;;;;4.95;2.90;;;;;;;;;;10018550;28;20119;-66
2022/07/16 01:43:28;;;;;;;6.72;2.55;;;;;;;;;;10003258;28;20075;-65
2022/07/16 01:48:25;;;;;;;4.32;2.50;;;;;;;;;;10018207;28;20073;-65
2022/07/16 01:53:22;;;;;;;6.28;2.60;;;;;;;;;;10001942;28;20099;-65
2022/07/16 01:58:18;;;;;;;5.63;2.63;;;;;;;;;;10005707;28;20048;-66
2022/07/16 02:03:14;;;;;;;4.45;2.92;;;;;;;;;;10001268;28;20681;-65
2022/07/16 02:08:11;;;;;;;5.28;2.65;;;;;;;;;;10037483;28;20058;-67
2022/07/16 02:13:07;;;;;;;8.20;3.58;;;;;;;;;;10013716;28;20131;-65
2022/07/16 02:18:04;;;;;;;5.95;3.20;;;;;;;;;;10037452;28;20075;-65
2022/07/16 02:23:00;;;;;;;6.65;3.50;;;;;;;;;;10004177;28;20435;-67
2022/07/16 02:28:08;;;;;;;5.38;3.20;;;;;;;;;;10023155;28;20113;-65
2022/07/16 02:33:05;;;;;;;5.22;2.78;;;;;;;;;;9998869;28;20475;-65
2022/07/16 02:38:02;;;;;;;8.18;2.97;;;;;;;;;;10009162;28;20517;-67
2022/07/16 02:42:59;;;;;;;10.48;3.80;;;;;;;;;;9998741;28;20048;-65
2022/07/16 02:47:55;;;;;;;7.18;2.90;;;;;;;;;;10036301;28;20130;-67
2022/07/16 02:52:52;;;;;;;5.18;2.15;;;;;;;;;;10027969;28;20051;-65
2022/07/16 02:57:48;;;;;;;4.68;2.30;;;;;;;;;;10034737;28;20110;-65
2022/07/16 03:02:45;;;;;;;6.65;2.30;;;;;;;;;;10024316;28;20052;-64
2022/07/16 03:07:41;;;;;;;7.15;2.75;;;;;;;;;;10033021;28;20055;-64
2022/07/16 03:12:38;;;;;;;4.95;2.45;;;;;;;;;;10006367;28;20060;-64
2022/07/16 03:17:35;;;;;;;4.47;1.90;;;;;;;;;;10032473;28;20048;-65
2022/07/16 03:22:31;;;;;;;5.45;2.22;;;;;;;;;;9997614;28;20111;-64
2022/07/16 03:27:27;;;;;;;4.07;1.48;;;;;;;;;;10026684;28;20063;-66
2022/07/16 03:32:23;;;;;;;3.10;1.30;;;;;;;;;;9997288;28;20048;-64
2022/07/16 03:37:20;;;;;;;2.58;1.08;;;;;;;;;;10009611;28;20075;-64
2022/07/16 03:42:16;;;;;;;4.57;1.60;;;;;;;;;;9997187;28;20116;-65
2022/07/16 03:47:12;;;;;;;3.67;1.60;;;;;;;;;;10029241;28;20497;-65
2022/07/16 03:52:09;;;;;;;6.82;1.40;;;;;;;;;;10023541;28;20048;-64
2022/07/16 03:57:05;;;;;;;2.88;1.48;;;;;;;;;;10028203;28;20054;-65
2022/07/16 04:02:01;;;;;;;5.65;1.77;;;;;;;;;;10020795;28;20064;-65
2022/07/16 04:06:57;;;;;;;4.80;1.63;;;;;;;;;;10027086;28;20083;-65
2022/07/16 04:11:55;;;;;;;4.82;1.33;;;;;;;;;;10003997;28;20109;-65
2022/07/16 04:16:51;;;;;;;5.10;1.80;;;;;;;;;;10032401;28;20082;-65
2022/07/16 04:21:47;;;;;;;3.53;1.30;;;;;;;;;;10003627;28;20115;-65
2022/07/16 04:26:44;;;;;;;4.28;1.23;;;;;;;;;;10030826;28;20076;-65
2022/07/16 04:31:40;;;;;;;4.57;1.38;;;;;;;;;;10003197;28;20084;-65
2022/07/16 04:36:36;;;;;;;6.68;2.00;;;;;;;;;;10024656;28;20068;-65
2022/07/16 04:41:32;;;;;;;5.75;1.40;;;;;;;;;;10002781;28;20063;-65
2022/07/16 04:46:29;;;;;;;5.85;1.70;;;;;;;;;;10017915;28;20103;-65
2022/07/16 04:51:25;;;;;;;7.82;1.60;;;;;;;;;;10002327;28;20052;-65
2022/07/16 04:56:22;;;;;;;3.65;1.30;;;;;;;;;;10028309;28;20523;-65
2022/07/16 05:01:19;;;;;;;3.95;1.13;;;;;;;;;;10055473;28;20083;-65
2022/07/16 05:06:15;;;;;;;11.48;2.17;;;;;;;;;;10029282;28;20087;-65
2022/07/16 05:11:11;;;;;;;6.30;1.63;;;;;;;;;;10029813;28;20508;-65
2022/07/16 05:16:08;;;;;;;4.97;1.63;;;;;;;;;;10025638;28;20520;-65
2022/07/16 05:21:04;;;;;;;5.85;1.65;;;;;;;;;;10013380;28;20099;-65
2022/07/16 05:26:00;;;;;;;12.73;1.95;;;;;;;;;;10024039;28;20142;-65
2022/07/16 05:30:57;;;;;;;6.93;1.45;;;;;;;;;;10003219;28;20063;-65
2022/07/16 05:35:53;;;;;;;2.97;1.05;;;;;;;;;;10019759;28;20048;-65
2022/07/16 05:40:49;;;;;;;10.18;1.30;;;;;;;;;;10000321;28;20043;-66
2022/07/16 05:45:45;;;;;;;6.97;0.85;;;;;;;;;;10016947;28;20088;-65
2022/07/16 05:50:42;;;;;;;6.22;0.95;;;;;;;;;;10000362;28;20044;-65
2022/07/16 05:55:38;;;;;;;8.98;1.00;;;;;;;;;;10005329;28;20736;-65
2022/07/16 06:00:34;;;;;;;4.70;0.98;;;;;;;;;;10000115;28;20067;-66
2022/07/16 06:05:31;;;;;;;5.30;1.20;;;;;;;;;;10018564;28;20051;-65
2022/07/16 06:10:27;;;;;;;3.50;0.90;;;;;;;;;;10038553;28;20098;-65
2022/07/16 06:15:23;;;;;;;6.00;1.30;;;;;;;;;;10025131;28;20058;-66
2022/07/16 06:20:19;;;;;;;6.32;0.80;;;;;;;;;;10033098;28;20052;-66
2022/07/16 06:25:16;;;;;;;5.53;0.77;;;;;;;;;;10016811;28;20131;-66
2022/07/16 06:30:13;;;;;;;4.60;0.80;;;;;;;;;;10023427;28;20078;-66
2022/07/16 06:35:11;;;;;;;6.25;0.98;;;;;;;;;;10015369;28;20437;-66
2022/07/16 06:40:07;;;;;;;5.05;1.48;;;;;;;;;;10018042;28;20531;-66
2022/07/16 06:45:04;;;;;;;3.53;0.90;;;;;;;;;;10014546;28;20051;-65
2022/07/16 06:50:00;;;;;;;4.90;1.20;;;;;;;;;;10001894;29;20052;-65
2022/07/16 06:54:56;;;;;;;4.35;0.80;;;;;;;;;;10001881;29;20517;-65
2022/07/16 06:59:53;;;;;;;3.83;0.85;;;;;;;;;;9997728;28;20631;-65
2022/07/16 07:04:49;;;;;;;7.25;1.88;;;;;;;;;;10011286;28;20048;-65
2022/07/16 07:09:46;;;;;;;6.32;1.20;;;;;;;;;;10036363;28;20054;-65
2022/07/16 07:14:42;;;;;;;9.35;1.15;;;;;;;;;;10025583;28;20078;-65
2022/07/16 07:19:38;;;;;;;8.23;1.58;;;;;;;;;;10034576;28;20220;-65
2022/07/16 07:24:35;;;;;;;5.72;1.40;;;;;;;;;;10011231;28;20098;-65
2022/07/16 07:29:47;;;;;;;7.05;0.95;;;;;;;;;;10030352;28;20091;-65
2022/07/16 07:34:43;;;;;;;8.40;1.30;;;;;;;;;;10009595;28;20043;-65
2022/07/16 07:39:39;;;;;;;6.93;1.55;;;;;;;;;;10019343;28;20048;-65
2022/07/16 07:44:36;;;;;;;6.50;1.15;;;;;;;;;;10008725;28;20530;-65
2022/07/16 07:49:32;;;;;;;8.30;1.42;;;;;;;;;;10005248;28;20044;-65
2022/07/16 07:54:28;;;;;;;7.93;1.50;;;;;;;;;;10015403;28;20135;-65
2022/07/16 07:59:25;;;;;;;6.60;1.52;;;;;;;;;;10009223;28;20155;-65
2022/07/16 08:04:21;;;;;;;5.75;1.25;;;;;;;;;;10013704;28;20111;-65
2022/07/16 08:09:18;;;;;;;8.55;0.90;;;;;;;;;;10003376;28;20052;-65
2022/07/16 08:14:15;;;;;;;5.25;1.55;;;;;;;;;;10012597;28;20043;-65
2022/07/16 08:19:26;;;;;;;5.50;1.23;;;;;;;;;;10041658;28;20052;-65
2022/07/16 08:29:37;;;;;;;4.78;1.00;;;;;;;;;;10041674;28;20091;-64
2022/07/16 08:34:34;;;;;;;7.80;1.00;;;;;;;;;;10023228;28;20079;-65
2022/07/16 08:39:30;;;;;;;4.93;0.88;;;;;;;;;;10031789;28;20095;-65
2022/07/16 08:44:26;;;;;;;8.05;0.88;;;;;;;;;;10012338;28;20074;-65
2022/07/16 08:49:23;;;;;;;4.40;0.40;;;;;;;;;;10030655;28;20111;-65
2022/07/16 08:54:20;;;;;;;4.78;0.70;;;;;;;;;;10012307;28;20060;-65
2022/07/16 08:59:16;;;;;;;5.43;0.77;;;;;;;;;;10024650;28;20568;-65
2022/07/16 09:04:13;;;;;;;4.40;0.80;;;;;;;;;;10010974;28;20047;-65
2022/07/16 09:09:10;;;;;;;7.07;1.20;;;;;;;;;;10022933;28;20111;-65
2022/07/16 09:14:06;;;;;;;6.07;0.88;;;;;;;;;;10009778;28;20079;-65
2022/07/16 09:19:02;;;;;;;7.00;1.00;;;;;;;;;;10018771;28;20107;-65
2022/07/16 09:23:59;;;;;;;4.45;1.05;;;;;;;;;;10008812;28;20139;-65
2022/07/16 09:28:59;;;;;;;5.68;1.10;;;;;;;;;;10016639;28;20059;-66
2022/07/16 09:34:03;;;;;;;5.90;0.55;;;;;;;;;;10007697;28;20243;-65
2022/07/16 09:38:59;;;;;;;3.28;0.82;;;;;;;;;;10006753;28;20048;-64
2022/07/16 09:43:56;;;;;;;7.28;1.00;;;;;;;;;;10002314;28;20048;-65
2022/07/16 09:48:52;;;;;;;4.72;1.40;;;;;;;;;;10000502;28;20079;-65
2022/07/16 09:53:49;;;;;;;5.75;1.30;;;;;;;;;;10006187;28;20157;-65
2022/07/16 09:58:47;;;;;;;6.30;1.10;;;;;;;;;;10038546;28;20574;-66
2022/07/16 10:03:44;;;;;;;5.53;0.80;;;;;;;;;;10029040;28;20487;-65
2022/07/16 10:08:41;;;;;;;3.08;0.52;;;;;;;;;;10036641;28;20050;-65
2022/07/16 10:13:41;;;;;;;3.97;0.88;;;;;;;;;;10003185;28;20139;-65
2022/07/16 10:18:40;;;;;;;6.32;0.90;;;;;;;;;;10022185;28;20520;-65
2022/07/16 10:23:38;;;;;;;8.05;1.23;;;;;;;;;;10003747;28;20102;-65
2022/07/16 10:28:35;;;;;;;4.93;1.00;;;;;;;;;;10018391;28;20501;-65
2022/07/16 10:33:38;;;;;;;5.13;0.80;;;;;;;;;;10003785;28;20051;-65
2022/07/16 10:38:35;;;;;;;6.13;1.42;;;;;;;;;;10002080;28;20048;-65
2022/07/16 10:43:32;;;;;;;4.22;1.15;;;;;;;;;;10000408;29;20058;-65
2022/07/16 10:48:29;;;;;;;7.43;1.08;;;;;;;;;;10035913;28;20051;-64
2022/07/16 10:53:25;;;;;;;4.90;1.10;;;;;;;;;;10034539;28;20134;-65
2022/07/16 10:58:26;;;;;;;4.65;0.80;;;;;;;;;;9997515;28;20055;-65
2022/07/16 11:03:23;;;;;;;5.05;1.13;;;;;;;;;;10000374;28;20055;-65
2022/07/16 11:08:19;;;;;;;7.93;1.13;;;;;;;;;;10035685;28;20055;-65
2022/07/16 11:13:16;;;;;;;5.13;1.20;;;;;;;;;;10030320;28;20086;-65
2022/07/16 11:18:15;;;;;;;7.30;1.27;;;;;;;;;;10035480;28;20095;-65
2022/07/16 11:23:13;;;;;;;9.00;1.40;;;;;;;;;;10012917;28;20052;-65
2022/07/16 11:28:09;;;;;;;5.60;1.13;;;;;;;;;;10034921;28;20052;-65
2022/07/16 11:33:05;;;;;;;9.20;1.48;;;;;;;;;;10005906;28;20127;-65
2022/07/16 11:38:02;;;;;;;5.03;0.85;;;;;;;;;;10035075;28;20044;-64
2022/07/16 11:42:59;;;;;;;11.30;1.73;;;;;;;;;;9997610;28;20131;-65
2022/07/16 11:48:21;;;;;;;4.22;1.00;;;;;;;;;;10033305;28;20052;-65
2022/07/16 11:53:27;;;;;;;7.33;1.00;;;;;;;;;;9999262;28;20048;-65
2022/07/16 11:58:24;;;;;;;3.67;0.70;;;;;;;;;;10016800;28;20107;-65
2022/07/16 12:03:20;;;;;;;5.38;0.88;;;;;;;;;;9998896;28;20587;-65
2022/07/16 12:08:18;;;;;;;5.75;1.00;;;;;;;;;;10004444;28;20107;-64
2022/07/16 12:13:26;;;;;;;4.95;0.60;;;;;;;;;;9999136;28;20059;-65
2022/07/16 12:18:23;;;;;;;8.55;1.92;;;;;;;;;;10034372;28;20063;-65
2022/07/16 12:23:37;;;;;;;6.20;1.15;;;;;;;;;;10030111;28;20052;-65
2022/07/16 12:28:33;;;;;;;4.95;1.02;;;;;;;;;;10034521;28;20044;-65
2022/07/16 12:33:30;;;;;;;5.90;1.20;;;;;;;;;;10029993;28;20040;-65
2022/07/16 12:38:48;;;;;;;7.78;1.45;;;;;;;;;;10040870;28;20079;-65
2022/07/16 12:43:53;;;;;;;10.98;1.73;;;;;;;;;;10016300;28;20134;-65
2022/07/16 12:48:51;;;;;;;5.88;1.80;;;;;;;;;;10031337;28;20413;-65
2022/07/16 12:53:47;;;;;;;6.43;1.05;;;;;;;;;;10008095;28;20484;-65
2022/07/16 12:58:49;;;;;;;5.97;1.27;;;;;;;;;;10023540;28;20055;-65
2022/07/16 13:03:49;;;;;;;6.38;0.80;;;;;;;;;;10008544;28;20090;-65
2022/07/16 13:08:46;;;;;;;4.78;1.05;;;;;;;;;;10020759;28;20579;-65
2022/07/16 13:13:42;;;;;;;4.25;1.08;;;;;;;;;;10006744;28;20147;-65
2022/07/16 13:18:39;;;;;;;4.68;1.65;;;;;;;;;;10026803;28;20429;-65
2022/07/16 13:23:35;;;;;;;6.38;1.25;;;;;;;;;;10005997;28;20054;-65
2022/07/16 13:28:32;;;;;;;5.45;0.90;;;;;;;;;;10020930;28;20562;-65
2022/07/16 13:33:28;;;;;;;4.35;0.82;;;;;;;;;;10004652;28;20492;-65
2022/07/16 13:38:25;;;;;;;6.68;0.90;;;;;;;;;;10015266;28;20096;-66
2022/07/16 13:43:21;;;;;;;4.40;0.82;;;;;;;;;;10003545;28;20068;-65
2022/07/16 13:48:18;;;;;;;6.90;1.23;;;;;;;;;;10005446;28;20048;-65
2022/07/16 13:53:14;;;;;;;5.22;1.17;;;;;;;;;;10002177;28;20044;-65
2022/07/16 13:58:14;;;;;;;6.25;1.00;;;;;;;;;;10038440;28;20071;-65
2022/07/16 14:03:10;;;;;;;5.97;1.17;;;;;;;;;;10030197;28;20131;-65
2022/07/16 14:08:07;;;;;;;8.95;1.73;;;;;;;;;;10037672;28;20535;-65
2022/07/16 14:13:03;;;;;;;6.10;1.08;;;;;;;;;;10026846;28;20079;-65
2022/07/16 14:18:01;;;;;;;8.88;1.00;;;;;;;;;;10038009;28;20072;-64
2022/07/16 14:22:57;;;;;;;6.60;0.98;;;;;;;;;;10023871;28;20672;-64
2022/07/16 14:27:54;;;;;;;4.72;0.93;;;;;;;;;;10037232;28;20055;-64
2022/07/16 14:32:50;;;;;;;5.10;1.30;;;;;;;;;;10016620;28;20048;-64
2022/07/16 14:37:46;;;;;;;7.28;1.15;;;;;;;;;;10035173;28;20048;-64
2022/07/16 14:42:44;;;;;;;7.07;1.20;;;;;;;;;;10016743;28;20084;-65
2022/07/16 14:47:40;;;;;;;7.45;0.95;;;;;;;;;;10034537;28;20483;-64
2022/07/16 14:52:38;;;;;;;4.88;1.08;;;;;;;;;;10004032;28;20099;-64
2022/07/16 14:57:35;;;;;;;7.63;1.75;;;;;;;;;;10024913;28;20107;-64
2022/07/16 15:02:31;;;;;;;5.55;1.33;;;;;;;;;;9997881;28;20131;-64
2022/07/16 15:07:28;;;;;;;7.63;1.33;;;;;;;;;;10015463;28;20051;-65
2022/07/16 15:12:24;;;;;;;8.65;1.30;;;;;;;;;;9997221;28;20509;-64
2022/07/16 15:17:21;;;;;;;5.10;1.10;;;;;;;;;;10005589;28;20047;-64
2022/07/16 15:22:17;;;;;;;6.22;1.40;;;;;;;;;;9997364;28;20056;-64
2022/07/16 15:27:14;;;;;;;3.47;1.40;;;;;;;;;;10033571;28;20139;-64
2022/07/16 15:32:17;;;;;;;4.68;0.65;;;;;;;;;;9997126;28;20135;-64
2022/07/16 15:37:13;;;;;;;5.50;1.25;;;;;;;;;;10029412;28;20091;-64
2022/07/16 15:42:10;;;;;;;8.40;1.15;;;;;;;;;;10016388;28;20099;-65
2022/07/16 15:47:06;;;;;;;8.65;0.70;;;;;;;;;;10028583;28;20052;-65
2022/07/16 15:52:03;;;;;;;4.78;1.00;;;;;;;;;;10012991;28;20050;-66
2022/07/16 15:57:00;;;;;;;8.27;1.98;;;;;;;;;;10027760;28;20476;-66
2022/07/16 16:01:57;;;;;;;6.43;1.15;;;;;;;;;;10006325;28;20052;-66
2022/07/16 16:06:53;;;;;;;8.45;2.20;;;;;;;;;;10022159;28;20079;-66
2022/07/16 16:11:49;;;;;;;6.25;1.92;;;;;;;;;;10002645;28;20539;-66
2022/07/16 16:16:45;;;;;;;7.00;1.25;;;;;;;;;;10025917;28;20048;-65
2022/07/16 16:21:42;;;;;;;7.47;1.45;;;;;;;;;;10017482;28;20266;-66
2022/07/16 16:26:38;;;;;;;5.50;0.88;;;;;;;;;;10018867;28;20048;-66
2022/07/16 16:31:35;;;;;;;8.68;1.05;;;;;;;;;;10003287;28;20123;-66
2022/07/16 16:36:31;;;;;;;7.28;1.92;;;;;;;;;;10015139;28;20080;-66
2022/07/16 16:41:28;;;;;;;8.45;2.13;;;;;;;;;;10003060;28;20059;-65
2022/07/16 16:46:25;;;;;;;4.30;0.95;;;;;;;;;;10008698;28;20052;-66
2022/07/16 16:51:21;;;;;;;7.10;1.17;;;;;;;;;;10002745;28;20509;-66
2022/07/16 16:56:18;;;;;;;7.68;1.13;;;;;;;;;;10002303;28;20055;-65
2022/07/16 17:01:14;;;;;;;2.47;0.50;;;;;;;;;;10002176;28;20473;-66
2022/07/16 17:06:11;;;;;;;5.30;1.50;;;;;;;;;;10026427;28;20075;-65
2022/07/16 17:11:07;;;;;;;7.50;1.95;;;;;;;;;;10018872;28;20543;-66
2022/07/16 17:16:04;;;;;;;5.50;1.95;;;;;;;;;;10025612;28;20562;-65
2022/07/16 17:21:00;;;;;;;6.20;1.27;;;;;;;;;;10009055;28;20083;-65
2022/07/16 17:25:58;;;;;;;5.90;1.13;;;;;;;;;;10019904;28;20536;-66
2022/07/16 17:30:54;;;;;;;4.45;0.85;;;;;;;;;;10000856;28;20472;-65
2022/07/16 17:35:50;;;;;;;6.00;1.10;;;;;;;;;;10017548;28;20052;-65
2022/07/16 17:40:47;;;;;;;7.05;1.00;;;;;;;;;;10000311;28;20052;-66
2022/07/16 17:45:43;;;;;;;7.57;1.90;;;;;;;;;;10010983;28;20075;-66
2022/07/16 17:50:40;;;;;;;4.28;1.20;;;;;;;;;;9999747;28;20048;-66
2022/07/16 17:55:37;;;;;;;5.88;1.15;;;;;;;;;;10020003;28;20118;-65
2022/07/16 18:00:33;;;;;;;5.05;1.17;;;;;;;;;;10038167;28;20103;-65
2022/07/16 18:05:30;;;;;;;8.65;1.38;;;;;;;;;;10027713;28;20047;-68
2022/07/16 18:10:26;;;;;;;8.85;2.25;;;;;;;;;;10038385;28;20048;-66
2022/07/16 18:15:22;;;;;;;6.63;1.48;;;;;;;;;;10024394;28;20503;-66
2022/07/16 18:20:19;;;;;;;8.73;1.30;;;;;;;;;;10029513;28;20072;-66
2022/07/16 18:25:15;;;;;;;8.15;1.40;;;;;;;;;;10011325;29;20135;-66
2022/07/16 18:30:11;;;;;;;6.88;1.23;;;;;;;;;;9991742;29;20557;-66
2022/07/16 18:35:08;;;;;;;8.95;1.80;;;;;;;;;;9990477;29;20059;-65
2022/07/16 18:40:06;;;;;;;6.50;1.70;;;;;;;;;;9988477;29;20083;-66
2022/07/16 18:45:03;;;;;;;10.25;1.20;;;;;;;;;;9982533;29;20148;-65
2022/07/16 18:49:59;;;;;;;9.15;0.88;;;;;;;;;;9982111;29;20135;-66
2022/07/16 18:54:56;;;;;;;7.32;1.15;;;;;;;;;;9982097;29;20083;-66
2022/07/16 18:59:52;;;;;;;5.95;1.10;;;;;;;;;;9982680;29;20052;-65
2022/07/16 19:04:48;;;;;;;5.18;1.00;;;;;;;;;;9982471;29;20051;-66
2022/07/16 19:09:45;;;;;;;10.65;1.50;;;;;;;;;;9982742;29;20566;-66
2022/07/16 19:14:41;;;;;;;5.05;1.48;;;;;;;;;;9982383;29;20086;-65
2022/07/16 19:19:37;;;;;;;6.47;1.45;;;;;;;;;;10012488;29;20103;-66
2022/07/16 19:24:34;;;;;;;5.68;1.25;;;;;;;;;;9982119;29;20079;-66
2022/07/16 19:29:30;;;;;;;6.68;1.67;;;;;;;;;;9982654;29;20515;-66
2022/07/16 19:34:27;;;;;;;7.15;1.38;;;;;;;;;;9982038;29;20088;-67
2022/07/16 19:39:23;;;;;;;6.97;1.52;;;;;;;;;;9981617;29;20089;-67
2022/07/16 19:44:19;;;;;;;10.45;1.90;;;;;;;;;;9986452;29;20048;-66
2022/07/16 19:49:15;;;;;;;7.25;1.52;;;;;;;;;;9994419;29;20074;-67
2022/07/16 19:54:12;;;;;;;7.43;1.67;;;;;;;;;;9994129;29;20087;-67
2022/07/16 19:59:08;;;;;;;8.70;1.73;;;;;;;;;;9993845;29;20044;-67
2022/07/16 20:04:04;;;;;;;6.55;1.45;;;;;;;;;;9993930;29;20052;-67
2022/07/16 20:09:01;;;;;;;14.85;2.22;;;;;;;;;;9993669;29;20059;-67
2022/07/16 20:13:58;;;;;;;9.82;1.85;;;;;;;;;;9994200;29;20048;-67
2022/07/16 20:18:54;;;;;;;10.55;1.67;;;;;;;;;;9992510;29;20123;-67
2022/07/16 20:23:50;;;;;;;11.60;1.40;;;;;;;;;;9993679;29;20108;-67
2022/07/16 20:28:46;;;;;;;6.15;1.10;;;;;;;;;;9993082;29;20127;-67
2022/07/16 20:33:43;;;;;;;5.18;1.20;;;;;;;;;;9992715;29;20055;-67
2022/07/16 20:38:39;;;;;;;8.73;1.90;;;;;;;;;;9992889;29;20099;-68
2022/07/16 20:43:35;;;;;;;8.15;2.58;;;;;;;;;;9993829;29;20062;-68
2022/07/16 20:48:32;;;;;;;6.68;1.40;;;;;;;;;;9992707;29;20052;-67
2022/07/16 20:53:28;;;;;;;10.43;1.63;;;;;;;;;;9993221;29;20529;-67
2022/07/16 20:58:25;;;;;;;9.50;1.95;;;;;;;;;;9986286;29;20100;-67
2022/07/16 21:03:21;;;;;;;8.68;1.60;;;;;;;;;;9987374;29;20136;-67
2022/07/16 21:08:27;;;;;;;9.98;1.48;;;;;;;;;;9986218;29;20084;-67
2022/07/16 21:13:26;;;;;;;6.90;1.67;;;;;;;;;;9985955;29;20123;-66
2022/07/16 21:18:22;;;;;;;6.93;1.33;;;;;;;;;;9986401;29;20056;-66
2022/07/16 21:23:19;;;;;;;7.53;1.52;;;;;;;;;;9986108;29;20111;-67
2022/07/16 21:28:15;;;;;;;4.95;1.33;;;;;;;;;;9986170;29;20051;-67
2022/07/16 21:33:12;;;;;;;11.52;2.00;;;;;;;;;;9985566;29;20135;-66
2022/07/16 21:38:08;;;;;;;8.13;1.55;;;;;;;;;;9985567;29;20088;-67
2022/07/16 21:43:04;;;;;;;12.18;1.88;;;;;;;;;;10016994;29;20072;-67
2022/07/16 21:48:01;;;;;;;9.65;1.65;;;;;;;;;;9984528;29;20555;-66
2022/07/16 21:52:57;;;;;;;8.20;1.73;;;;;;;;;;9985655;29;20334;-66
2022/07/16 21:57:53;;;;;;;5.95;1.80;;;;;;;;;;9985442;29;20056;-66
2022/07/16 22:02:50;;;;;;;7.10;1.60;;;;;;;;;;9985167;29;20051;-67
2022/07/16 22:07:46;;;;;;;9.60;1.30;;;;;;;;;;9984419;29;20044;-67
2022/07/16 22:12:42;;;;;;;11.93;2.22;;;;;;;;;;9985104;29;20084;-66
2022/07/16 22:17:39;;;;;;;7.63;1.80;;;;;;;;;;9983942;29;20166;-67
2022/07/16 22:22:36;;;;;;;8.88;1.90;;;;;;;;;;9984134;29;20052;-67
2022/07/16 22:27:32;;;;;;;7.38;1.88;;;;;;;;;;9984709;29;20678;-67
2022/07/16 22:32:28;;;;;;;9.35;1.60;;;;;;;;;;9983154;29;20477;-66
2022/07/16 22:37:25;;;;;;;9.27;1.52;;;;;;;;;;9983134;29;20044;-67
2022/07/16 22:42:21;;;;;;;10.45;2.45;;;;;;;;;;9983288;29;20493;-67
2022/07/16 22:47:17;;;;;;;13.68;2.08;;;;;;;;;;9983103;29;20154;-67
2022/07/16 22:52:14;;;;;;;13.23;2.47;;;;;;;;;;9983157;29;20067;-67
2022/07/16 22:57:10;;;;;;;8.90;2.08;;;;;;;;;;9982850;29;20552;-67
2022/07/16 23:02:06;;;;;;;12.68;3.53;;;;;;;;;;9982823;29;20084;-66
2022/07/16 23:07:03;;;;;;;10.15;2.20;;;;;;;;;;9982748;29;20083;-67
2022/07/16 23:12:00;;;;;;;5.32;1.80;;;;;;;;;;9982649;29;20140;-67
2022/07/16 23:16:56;;;;;;;10.95;2.03;;;;;;;;;;9982408;29;20667;-67
2022/07/16 23:21:52;;;;;;;9.07;1.88;;;;;;;;;;9981710;29;20040;-67
2022/07/16 23:26:49;;;;;;;6.78;1.40;;;;;;;;;;9982564;29;20056;-67
2022/07/16 23:31:45;;;;;;;8.85;1.98;;;;;;;;;;9982412;29;20084;-67
2022/07/16 23:36:41;;;;;;;8.77;2.78;;;;;;;;;;9981663;29;20044;-67
2022/07/16 23:41:38;;;;;;;11.75;1.88;;;;;;;;;;9981953;29;20509;-67
2022/07/16 23:46:35;;;;;;;8.50;1.50;;;;;;;;;;9981565;29;20095;-67
2022/07/16 23:51:31;;;;;;;9.48;1.58;;;;;;;;;;9981139;29;20056;-67
2022/07/16 23:56:27;;;;;;;8.45;1.48;;;;;;;;;;10012254;29;20620;-67
